createdAt,value
2022-08-26T00:00:59.434Z,2.60
2022-08-26T00:03:27.509Z,2.65
2022-08-26T00:05:55.229Z,2.30
2022-08-26T00:08:21.742Z,2.60
2022-08-26T00:10:48.679Z,2.67
2022-08-26T00:13:15.728Z,2.30
2022-08-26T00:15:47.104Z,1.80
2022-08-26T00:18:21.756Z,2.90
2022-08-26T00:20:49.085Z,2.42
2022-08-26T00:23:15.584Z,2.08
2022-08-26T00:25:42.740Z,1.58
2022-08-26T00:28:09.659Z,2.30
2022-08-26T00:30:38.092Z,1.83
2022-08-26T00:33:06.324Z,2.15
2022-08-26T00:35:35.188Z,1.80
2022-08-26T00:38:03.981Z,1.45
2022-08-26T00:40:35.435Z,1.83
2022-08-26T00:43:02.818Z,1.67
2022-08-26T00:45:42.090Z,1.58
2022-08-26T00:48:10.233Z,1.40
2022-08-26T00:50:42.297Z,1.60
2022-08-26T00:53:23.998Z,1.10
2022-08-26T00:56:01.741Z,1.17
2022-08-26T00:58:31.747Z,1.20
2022-08-26T01:00:58.241Z,0.90
2022-08-26T01:03:27.237Z,0.85
2022-08-26T01:05:56.957Z,1.17
2022-08-26T01:08:24.722Z,0.87
2022-08-26T01:10:55.853Z,0.90
2022-08-26T01:13:22.754Z,1.15
2022-08-26T01:15:55.115Z,0.90
2022-08-26T01:18:22.172Z,1.00
2022-08-26T01:21:19.454Z,0.70
2022-08-26T01:23:50.555Z,0.70
2022-08-26T01:26:21.903Z,0.73
2022-08-26T01:28:51.807Z,0.70
2022-08-26T01:31:22.520Z,0.80
2022-08-26T01:34:16.838Z,1.00
2022-08-26T01:36:45.973Z,0.60
2022-08-26T01:39:15.828Z,0.80
2022-08-26T01:41:44.011Z,0.60
2022-08-26T01:44:18.450Z,0.70
2022-08-26T01:46:47.383Z,0.73
2022-08-26T01:49:15.447Z,0.60
2022-08-26T01:51:44.312Z,0.70
2022-08-26T01:54:13.822Z,0.85
2022-08-26T01:56:41.423Z,0.60
2022-08-26T01:59:13.449Z,0.70
2022-08-26T02:01:40.524Z,0.50
2022-08-26T02:04:17.746Z,0.98
2022-08-26T02:06:45.103Z,0.80
2022-08-26T02:09:12.568Z,0.60
2022-08-26T02:11:41.762Z,0.60
2022-08-26T02:14:13.417Z,0.60
2022-08-26T02:16:42.977Z,0.55
2022-08-26T02:19:17.036Z,0.60
2022-08-26T02:21:46.341Z,0.40
2022-08-26T02:24:27.501Z,0.47
2022-08-26T02:26:55.941Z,0.70
2022-08-26T02:29:25.438Z,0.50
2022-08-26T02:31:55.564Z,0.40
2022-08-26T02:34:28.242Z,0.52
2022-08-26T02:37:01.004Z,0.60
2022-08-26T02:39:30.549Z,0.40
2022-08-26T02:41:59.214Z,0.40
2022-08-26T02:44:26.800Z,0.50
2022-08-26T02:46:54.543Z,0.40
2022-08-26T02:49:24.640Z,0.50
2022-08-26T02:51:51.786Z,0.40
2022-08-26T02:54:20.330Z,0.38
2022-08-26T02:56:47.655Z,0.65
2022-08-26T02:59:14.226Z,0.50
2022-08-26T03:01:41.642Z,0.40
2022-08-26T03:04:12.237Z,0.47
2022-08-26T03:06:39.194Z,0.40
2022-08-26T03:09:07.752Z,0.50
2022-08-26T03:11:34.342Z,0.40
2022-08-26T03:14:03.566Z,0.37
2022-08-26T03:16:34.824Z,0.95
2022-08-26T03:19:02.882Z,0.40
2022-08-26T03:21:30.006Z,0.43
2022-08-26T03:23:58.718Z,0.40
2022-08-26T03:26:26.316Z,0.40
2022-08-26T03:29:11.835Z,0.70
2022-08-26T03:31:38.355Z,0.40
2022-08-26T03:34:05.762Z,0.30
2022-08-26T03:36:32.290Z,0.40
2022-08-26T03:39:01.888Z,0.50
2022-08-26T03:41:29.083Z,0.60
2022-08-26T03:43:59.680Z,0.40
2022-08-26T03:46:28.377Z,0.40
2022-08-26T03:48:55.085Z,0.40
2022-08-26T03:51:21.548Z,0.40
2022-08-26T03:53:48.148Z,0.40
2022-08-26T03:56:15.218Z,0.30
2022-08-26T03:58:42.974Z,0.30
2022-08-26T04:01:11.307Z,0.38
2022-08-26T04:03:56.603Z,0.30
2022-08-26T04:06:27.801Z,0.30
2022-08-26T04:08:56.157Z,0.20
2022-08-26T04:11:34.220Z,0.30
2022-08-26T04:14:06.484Z,0.50
2022-08-26T04:16:34.235Z,0.40
2022-08-26T04:19:01.833Z,0.40
2022-08-26T04:21:28.997Z,0.30
2022-08-26T04:23:55.990Z,0.20
2022-08-26T04:26:24.751Z,0.30
2022-08-26T04:28:53.675Z,0.30
2022-08-26T04:31:20.489Z,0.35
2022-08-26T04:33:49.605Z,0.47
2022-08-26T04:36:17.406Z,0.30
2022-08-26T04:38:45.286Z,0.30
2022-08-26T04:41:15.028Z,0.30
2022-08-26T04:43:42.218Z,0.50
2022-08-26T04:46:10.131Z,0.30
2022-08-26T04:48:40.914Z,0.30
2022-08-26T04:51:07.701Z,0.40
2022-08-26T04:53:34.775Z,0.37
2022-08-26T04:56:01.690Z,0.50
2022-08-26T04:58:30.378Z,0.60
2022-08-26T05:00:56.861Z,0.40
2022-08-26T05:03:24.557Z,0.40
2022-08-26T05:05:51.487Z,0.50
2022-08-26T05:08:20.120Z,0.40
2022-08-26T05:10:51.583Z,0.77
2022-08-26T05:13:20.565Z,0.35
2022-08-26T05:15:48.406Z,0.40
2022-08-26T05:18:17.394Z,0.30
2022-08-26T05:20:49.229Z,0.30
2022-08-26T05:23:17.237Z,0.30
2022-08-26T05:25:47.160Z,0.25
2022-08-26T05:28:16.898Z,0.63
2022-08-26T05:30:44.626Z,0.40
2022-08-26T05:33:12.087Z,0.40
2022-08-26T05:35:39.404Z,0.40
2022-08-26T05:38:12.588Z,0.30
2022-08-26T05:40:43.132Z,0.40
2022-08-26T05:43:10.811Z,0.30
2022-08-26T05:45:43.528Z,0.65
2022-08-26T05:48:17.356Z,0.30
2022-08-26T05:50:48.436Z,0.30
2022-08-26T05:53:18.543Z,0.30
2022-08-26T05:55:49.434Z,0.30
2022-08-26T05:58:17.616Z,0.40
2022-08-26T06:00:45.201Z,0.30
2022-08-26T06:03:11.867Z,0.40
2022-08-26T06:05:40.061Z,0.35
2022-08-26T06:08:11.661Z,0.37
2022-08-26T06:10:49.082Z,0.40
2022-08-26T06:13:19.642Z,0.40
2022-08-26T06:15:51.685Z,0.40
2022-08-26T06:18:24.165Z,0.32
2022-08-26T06:20:57.623Z,0.30
2022-08-26T06:24:14.306Z,0.40
2022-08-26T06:41:49.660Z,0.28
2022-08-26T06:45:09.183Z,0.32
2022-08-26T06:47:32.816Z,0.40
2022-08-26T06:50:01.643Z,0.28
2022-08-26T06:52:55.941Z,0.20
2022-08-26T06:58:10.689Z,0.20
2022-08-26T07:03:25.956Z,0.30
2022-08-26T07:05:52.715Z,0.30
2022-08-26T07:08:22.607Z,0.40
2022-08-26T07:10:51.094Z,0.20
2022-08-26T07:13:30.795Z,0.30
2022-08-26T07:16:02.894Z,0.20
2022-08-26T07:18:57.901Z,0.20
2022-08-26T07:21:24.936Z,0.52
2022-08-26T07:23:57.516Z,0.20
2022-08-26T07:27:18.058Z,0.28
2022-08-26T07:29:44.947Z,0.20
2022-08-26T07:32:37.547Z,0.20
2022-08-26T07:35:07.609Z,0.50
2022-08-26T07:37:39.441Z,0.30
2022-08-26T07:40:42.553Z,0.20
2022-08-26T07:43:10.222Z,0.30
2022-08-26T07:46:27.255Z,0.50
2022-08-26T07:49:27.098Z,0.22
2022-08-26T07:51:58.174Z,0.20
2022-08-26T07:54:27.018Z,0.20
2022-08-26T07:56:54.595Z,0.25
2022-08-26T07:59:23.290Z,0.20
2022-08-26T08:04:43.419Z,0.73
2022-08-26T08:07:11.600Z,0.20
2022-08-26T08:09:40.701Z,0.30
2022-08-26T08:12:07.959Z,0.30
2022-08-26T08:14:40.722Z,0.30
2022-08-26T08:19:39.211Z,0.40
2022-08-26T08:35:02.385Z,0.20
2022-08-26T08:38:27.278Z,0.32
2022-08-26T08:40:54.023Z,0.20
2022-08-26T08:47:51.182Z,0.60
2022-08-26T08:50:48.122Z,0.20
2022-08-26T08:53:19.271Z,0.43
2022-08-26T09:00:18.245Z,0.20
2022-08-26T09:13:43.253Z,0.30
2022-08-26T09:16:21.855Z,0.60
2022-08-26T09:22:40.381Z,0.20
2022-08-26T09:25:30.594Z,0.40
2022-08-26T10:06:56.593Z,0.20
2022-08-26T10:11:20.512Z,0.40
2022-08-26T10:24:24.935Z,0.20
2022-08-26T10:27:11.149Z,0.20
2022-08-26T10:29:45.553Z,0.30
2022-08-26T10:32:24.432Z,0.20
2022-08-26T10:34:54.122Z,0.13
2022-08-26T10:37:23.709Z,0.20
2022-08-26T10:39:58.672Z,0.55
2022-08-26T10:42:37.442Z,0.20
2022-08-26T10:45:11.984Z,0.20
2022-08-26T10:47:52.528Z,0.30
2022-08-26T10:50:21.460Z,0.20
2022-08-26T10:53:03.983Z,0.20
2022-08-26T10:55:38.038Z,0.20
2022-08-26T10:58:28.743Z,0.30
2022-08-26T11:01:23.499Z,0.20
2022-08-26T11:03:57.921Z,0.20
2022-08-26T11:06:37.075Z,0.32
2022-08-26T11:09:08.253Z,0.30
2022-08-26T11:11:42.094Z,0.28
2022-08-26T11:14:10.717Z,0.47
2022-08-26T11:16:45.743Z,0.35
2022-08-26T11:19:57.066Z,0.20
2022-08-26T11:22:48.085Z,0.20
2022-08-26T11:25:16.612Z,0.20
2022-08-26T11:27:46.467Z,0.30
2022-08-26T11:30:13.150Z,0.30
2022-08-26T11:32:40.021Z,0.30
2022-08-26T11:35:18.057Z,0.17
2022-08-26T11:37:54.433Z,0.30
2022-08-26T11:40:27.234Z,0.93
2022-08-26T11:42:59.775Z,0.20
2022-08-26T11:45:42.026Z,0.10
2022-08-26T11:48:19.828Z,0.20
2022-08-26T11:51:02.728Z,0.20
2022-08-26T11:53:33.908Z,0.20
2022-08-26T11:56:04.828Z,0.30
2022-08-26T11:58:32.201Z,0.20
2022-08-26T12:01:09.746Z,0.20
2022-08-26T12:03:47.045Z,0.20
2022-08-26T12:06:22.142Z,0.20
2022-08-26T12:08:49.595Z,0.20
2022-08-26T12:11:23.845Z,0.30
2022-08-26T12:13:57.940Z,0.30
2022-08-26T12:16:27.880Z,0.20
2022-08-26T12:18:55.337Z,0.33
2022-08-26T12:21:29.259Z,0.25
2022-08-26T12:24:04.062Z,0.20
2022-08-26T12:26:36.316Z,0.43
2022-08-26T12:29:20.191Z,0.30
2022-08-26T12:32:11.081Z,0.20
2022-08-26T12:34:37.947Z,0.20
2022-08-26T12:37:04.827Z,0.20
2022-08-26T12:39:37.926Z,0.20
2022-08-26T12:42:24.628Z,0.20
2022-08-26T12:45:52.116Z,0.20
2022-08-26T12:54:56.819Z,0.30
2022-08-26T12:58:04.237Z,0.30
2022-08-26T13:00:37.658Z,0.40
2022-08-26T13:03:04.217Z,0.40
2022-08-26T13:05:33.887Z,0.20
2022-08-26T13:08:29.998Z,0.20
2022-08-26T13:11:05.058Z,0.20
2022-08-26T13:13:34.934Z,1.03
2022-08-26T13:16:03.380Z,0.20
2022-08-26T13:33:30.042Z,0.20
2022-08-26T13:39:04.671Z,0.40
2022-08-26T13:41:32.056Z,0.30
2022-08-26T13:44:03.228Z,0.30
2022-08-26T13:49:36.724Z,0.40
2022-08-26T13:52:03.656Z,0.40
2022-08-26T13:55:01.093Z,0.20
2022-08-26T14:16:51.341Z,0.25
2022-08-26T14:20:10.461Z,0.38
2022-08-26T14:35:37.917Z,0.30
2022-08-26T14:38:36.102Z,0.30
2022-08-26T14:42:13.351Z,0.30
2022-08-26T14:44:48.877Z,0.30
2022-08-26T14:48:16.466Z,0.43
2022-08-26T14:51:16.908Z,0.30
2022-08-26T14:54:07.649Z,0.38
2022-08-26T14:57:01.678Z,0.20
2022-08-26T15:02:33.334Z,0.40
2022-08-26T15:04:39.900Z,0.20
2022-08-26T15:12:48.343Z,0.30
2022-08-26T15:35:58.596Z,0.20
2022-08-26T15:51:55.018Z,0.22
2022-08-26T15:55:24.013Z,0.30
2022-08-26T16:04:15.667Z,0.68
2022-08-26T16:05:47.485Z,0.40
2022-08-26T16:07:40.629Z,0.30
2022-08-26T16:10:10.429Z,0.30
2022-08-26T16:12:46.047Z,0.20
2022-08-26T16:18:54.691Z,0.50
2022-08-26T16:42:12.730Z,0.30
2022-08-26T16:57:05.576Z,0.60
2022-08-26T17:14:22.033Z,0.40
2022-08-26T17:17:40.117Z,0.40
2022-08-26T17:19:47.099Z,0.30
2022-08-26T17:26:17.399Z,0.30
2022-08-26T17:29:12.337Z,0.30
2022-08-26T17:31:40.203Z,0.77
2022-08-26T17:34:41.014Z,0.30
2022-08-26T17:38:09.704Z,0.60
2022-08-26T17:44:27.858Z,0.20
2022-08-26T17:46:54.844Z,0.50
2022-08-26T17:49:26.908Z,0.40
2022-08-26T17:53:01.267Z,0.50
2022-08-26T17:55:01.938Z,0.40
2022-08-26T17:57:28.679Z,0.30
2022-08-26T18:00:02.050Z,0.30
2022-08-26T18:04:55.322Z,0.40
2022-08-26T18:10:26.166Z,0.30
2022-08-26T18:12:52.811Z,0.45
2022-08-26T18:15:19.744Z,0.30
2022-08-26T18:17:46.365Z,0.43
2022-08-26T18:20:16.661Z,0.60
2022-08-26T18:23:04.800Z,0.60
2022-08-26T18:25:31.580Z,0.50
2022-08-26T18:27:58.263Z,0.50
2022-08-26T18:30:28.427Z,0.70
2022-08-26T18:32:55.081Z,0.50
2022-08-26T18:35:21.675Z,1.05
2022-08-26T18:37:52.924Z,0.50
2022-08-26T18:40:19.604Z,0.55
2022-08-26T18:42:46.978Z,0.73
2022-08-26T18:45:20.460Z,0.60
2022-08-26T18:47:46.963Z,0.50
2022-08-26T18:50:13.823Z,0.55
2022-08-26T18:52:40.363Z,0.50
2022-08-26T18:55:07.473Z,0.40
2022-08-26T18:57:34.289Z,0.85
2022-08-26T19:00:02.730Z,0.47
2022-08-26T19:02:29.377Z,0.57
2022-08-26T19:04:57.203Z,0.40
2022-08-26T19:07:23.746Z,0.33
2022-08-26T19:09:53.858Z,0.40
2022-08-26T19:12:21.224Z,0.77
2022-08-26T19:14:47.819Z,0.40
2022-08-26T19:17:14.555Z,0.47
2022-08-26T19:19:41.085Z,0.43
2022-08-26T19:22:07.823Z,0.40
2022-08-26T19:24:34.775Z,0.73
2022-08-26T19:27:02.473Z,0.50
2022-08-26T19:29:33.044Z,0.50
2022-08-26T19:32:00.200Z,0.40
2022-08-26T19:34:26.767Z,0.35
2022-08-26T19:36:56.825Z,0.30
2022-08-26T19:39:23.543Z,0.45
2022-08-26T19:41:50.097Z,0.45
2022-08-26T19:44:39.102Z,0.50
2022-08-26T19:47:08.248Z,0.40
2022-08-26T19:49:35.954Z,0.43
2022-08-26T19:52:03.066Z,0.60
2022-08-26T19:54:30.053Z,0.45
2022-08-26T19:56:57.336Z,1.13
2022-08-26T19:59:24.273Z,0.40
2022-08-26T20:02:00.596Z,0.50
2022-08-26T20:04:30.186Z,0.70
2022-08-26T20:06:57.737Z,0.40
2022-08-26T20:09:25.504Z,0.40
2022-08-26T20:11:52.078Z,0.60
2022-08-26T20:14:23.279Z,0.60
2022-08-26T20:16:49.845Z,0.50
2022-08-26T20:19:37.538Z,0.70
2022-08-26T20:22:04.975Z,0.67
2022-08-26T20:24:32.557Z,0.60
2022-08-26T20:26:59.451Z,0.63
2022-08-26T20:29:26.654Z,0.65
2022-08-26T20:31:54.631Z,0.35
2022-08-26T20:34:21.309Z,0.50
2022-08-26T20:36:49.520Z,0.65
2022-08-26T20:39:18.135Z,0.50
2022-08-26T20:41:45.494Z,0.47
2022-08-26T20:44:13.201Z,0.45
2022-08-26T20:46:41.072Z,0.50
2022-08-26T20:49:08.402Z,0.93
2022-08-26T20:51:37.345Z,0.40
2022-08-26T20:54:10.486Z,0.45
2022-08-26T20:56:37.674Z,0.40
2022-08-26T20:59:06.906Z,0.50
2022-08-26T21:01:35.693Z,0.40
2022-08-26T21:04:05.283Z,0.68
2022-08-26T21:06:33.942Z,0.90
2022-08-26T21:09:01.998Z,0.60
2022-08-26T21:11:29.126Z,0.50
2022-08-26T21:14:06.945Z,0.80
2022-08-26T21:16:44.201Z,0.50
2022-08-26T21:19:13.204Z,0.60
2022-08-26T21:21:40.784Z,0.30
2022-08-26T21:24:07.657Z,0.70
2022-08-26T21:26:34.293Z,0.50
2022-08-26T21:29:01.466Z,0.43
2022-08-26T21:31:29.584Z,0.55
2022-08-26T21:33:56.487Z,0.50
2022-08-26T21:36:23.032Z,0.50
2022-08-26T21:38:49.696Z,0.52
2022-08-26T21:41:19.803Z,0.55
2022-08-26T21:43:48.396Z,0.47
2022-08-26T21:46:18.737Z,0.50
2022-08-26T21:48:50.762Z,0.70
2022-08-26T21:51:20.779Z,0.63
2022-08-26T21:53:47.559Z,0.50
2022-08-26T21:56:16.530Z,0.63
2022-08-26T21:58:43.154Z,0.50
2022-08-26T22:01:11.983Z,0.43
2022-08-26T22:03:47.037Z,0.50
2022-08-26T22:06:16.695Z,0.70
2022-08-26T22:08:43.512Z,0.40
2022-08-26T22:11:10.495Z,0.60
2022-08-26T22:13:39.174Z,0.40
2022-08-26T22:16:06.835Z,0.57
2022-08-26T22:18:34.513Z,0.50
2022-08-26T22:21:04.766Z,0.73
2022-08-26T22:23:31.620Z,0.60
2022-08-26T22:25:59.245Z,1.17
2022-08-26T22:28:27.550Z,0.60
2022-08-26T22:30:55.563Z,0.30
2022-08-26T22:33:22.388Z,0.60
2022-08-26T22:35:50.599Z,0.40
2022-08-26T22:38:17.607Z,0.50
2022-08-26T22:40:47.366Z,0.40
2022-08-26T22:43:14.353Z,0.50
2022-08-26T22:45:43.420Z,0.50
2022-08-26T22:48:12.610Z,0.50
2022-08-26T22:50:39.088Z,0.50
2022-08-26T22:53:05.614Z,0.43
2022-08-26T22:55:32.323Z,0.40
2022-08-26T22:57:58.974Z,0.60
2022-08-26T23:00:32.053Z,0.40
2022-08-26T23:02:59.278Z,0.50
2022-08-26T23:05:25.892Z,0.63
2022-08-26T23:07:52.508Z,0.40
2022-08-26T23:10:19.125Z,0.43
2022-08-26T23:12:45.597Z,0.60
2022-08-26T23:15:12.492Z,0.50
2022-08-26T23:17:39.654Z,0.57
2022-08-26T23:20:10.378Z,0.68
2022-08-26T23:22:37.726Z,0.50
2022-08-26T23:25:07.722Z,0.63
2022-08-26T23:27:36.858Z,0.73
2022-08-26T23:30:06.703Z,0.60
2022-08-26T23:32:33.129Z,0.60
2022-08-26T23:34:59.776Z,0.60
2022-08-26T23:37:31.973Z,0.60
2022-08-26T23:40:02.111Z,0.80
2022-08-26T23:42:29.952Z,0.47
2022-08-26T23:44:56.611Z,0.40
2022-08-26T23:47:23.108Z,0.55
2022-08-26T23:49:49.581Z,0.60
2022-08-26T23:52:35.893Z,0.57
2022-08-26T23:55:02.565Z,0.50
2022-08-26T23:57:29.059Z,0.40
2022-08-26T23:59:55.784Z,1.02
